Time;durP1;ratioP1;P1;durP2;ratioP2;P2;SDS_P1;SDS_P2;PMS_P1;PMS_P2;Temp;Humidity;BMP_temperature;BMP_pressure;BME280_temperature;BME280_humidity;BME280_pressure;Samples;Min_cycle;Max_cycle;Signal;HPM_P1;HPM_P2
2021/03/01 00:01:57;;;;;;;12.93;6.63;;;5.70;99.90;;;;;;5054113;28;20572;-70
2021/03/01 00:04:23;;;;;;;15.90;8.73;;;5.60;99.90;;;;;;5053679;28;20990;-70
2021/03/01 00:06:50;;;;;;;10.73;7.30;;;5.60;99.90;;;;;;5055488;28;20978;-69
2021/03/01 00:09:17;;;;;;;11.60;7.50;;;5.40;99.90;;;;;;5059958;28;20449;-70
2021/03/01 00:11:44;;;;;;;26.00;12.40;;;5.40;99.90;;;;;;5062885;28;20511;-70
2021/03/01 00:14:11;;;;;;;22.07;12.77;;;5.50;99.90;;;;;;5055129;28;20422;-69
2021/03/01 00:16:38;;;;;;;32.00;13.00;;;5.50;99.90;;;;;;5053571;28;20462;-70
2021/03/01 00:19:05;;;;;;;26.43;13.43;;;5.60;99.90;;;;;;5058786;28;20471;-70
2021/03/01 00:21:31;;;;;;;19.60;12.43;;;5.50;99.90;;;;;;5052799;28;20466;-69
2021/03/01 00:23:58;;;;;;;20.27;13.40;;;5.50;99.90;;;;;;5052344;28;20531;-69
2021/03/01 00:26:25;;;;;;;36.03;16.80;;;5.60;99.90;;;;;;5050524;28;20482;-69
2021/03/01 00:28:51;;;;;;;17.90;8.90;;;5.60;99.90;;;;;;5051099;28;20453;-69
2021/03/01 00:31:18;;;;;;;19.10;7.40;;;5.40;99.90;;;;;;5057432;28;20477;-69
2021/03/01 00:33:45;;;;;;;12.63;7.50;;;5.40;99.90;;;;;;5055427;28;20522;-69
2021/03/01 00:36:12;;;;;;;32.13;13.10;;;5.40;99.90;;;;;;5055174;28;20978;-71
2021/03/01 00:38:38;;;;;;;27.10;7.23;;;5.30;99.90;;;;;;5050869;28;20539;-69
2021/03/01 00:41:05;;;;;;;21.80;7.17;;;5.10;99.90;;;;;;5056514;28;20501;-68
2021/03/01 00:43:32;;;;;;;28.90;16.90;;;5.10;99.90;;;;;;5057694;28;20421;-70
2021/03/01 00:45:59;;;;;;;21.43;12.00;;;5.20;99.90;;;;;;5053659;28;21006;-69
2021/03/01 00:48:26;;;;;;;33.87;14.17;;;5.30;99.90;;;;;;5053156;28;20540;-69
2021/03/01 00:50:53;;;;;;;29.57;16.20;;;5.30;99.90;;;;;;5055648;28;20445;-69
2021/03/01 00:53:23;;;;;;;37.77;17.60;;;5.20;99.90;;;;;;5060588;28;20521;-69
2021/03/01 00:55:50;;;;;;;33.77;16.00;;;5.20;99.90;;;;;;5056469;28;21296;-68
2021/03/01 00:58:18;;;;;;;13.20;8.43;;;5.30;99.90;;;;;;5056463;28;20500;-69
2021/03/01 01:00:45;;;;;;;8.70;5.77;;;5.40;99.90;;;;;;5060035;28;20960;-69
2021/03/01 01:03:12;;;;;;;44.50;17.63;;;5.30;99.90;;;;;;5053409;28;20561;-69
2021/03/01 01:05:38;;;;;;;35.80;15.63;;;5.20;99.90;;;;;;5055000;28;20782;-67
2021/03/01 01:08:06;;;;;;;35.43;15.23;;;5.30;99.90;;;;;;5052324;28;20485;-69
2021/03/01 01:10:33;;;;;;;19.23;10.30;;;5.30;99.90;;;;;;5055167;28;20866;-68
2021/03/01 01:13:00;;;;;;;9.37;8.47;;;5.30;99.90;;;;;;5056501;28;20444;-70
2021/03/01 01:15:26;;;;;;;10.70;6.00;;;5.30;99.90;;;;;;5056703;28;20532;-68
2021/03/01 01:17:53;;;;;;;31.77;14.23;;;5.20;99.90;;;;;;5039508;28;20474;-68
2021/03/01 01:20:20;;;;;;;42.27;18.77;;;5.10;99.90;;;;;;5061868;28;20476;-68
2021/03/01 01:22:47;;;;;;;36.53;19.03;;;5.10;99.90;;;;;;5053845;28;20430;-69
2021/03/01 01:25:16;;;;;;;12.30;7.00;;;5.10;99.90;;;;;;5058289;28;20487;-69
2021/03/01 01:27:43;;;;;;;28.20;10.83;;;5.20;99.90;;;;;;5054965;28;21201;-69
2021/03/01 01:30:11;;;;;;;32.57;11.40;;;5.10;99.90;;;;;;5053280;28;20460;-69
2021/03/01 01:32:38;;;;;;;45.73;18.37;;;5.00;99.90;;;;;;5058621;28;20485;-70
2021/03/01 01:35:05;;;;;;;43.23;17.97;;;5.10;99.90;;;;;;5070256;28;20438;-70
2021/03/01 01:37:32;;;;;;;5.50;4.40;;;5.20;99.90;;;;;;5055788;28;20539;-70
2021/03/01 01:39:59;;;;;;;25.33;11.67;;;5.20;99.90;;;;;;5057385;28;20452;-69
2021/03/01 01:42:26;;;;;;;49.50;18.10;;;5.10;99.90;;;;;;5059909;28;20415;-70
2021/03/01 01:44:53;;;;;;;16.13;11.03;;;5.10;99.90;;;;;;5057916;28;20477;-70
2021/03/01 01:47:19;;;;;;;29.67;9.83;;;5.10;99.90;;;;;;5057039;28;20505;-70
2021/03/01 01:49:46;;;;;;;51.30;20.67;;;5.10;99.90;;;;;;5037890;28;20457;-69
2021/03/01 01:52:13;;;;;;;52.20;22.00;;;5.20;99.90;;;;;;5059775;28;20474;-70
2021/03/01 01:54:41;;;;;;;35.47;20.97;;;5.30;99.90;;;;;;5057879;28;20563;-71
2021/03/01 01:57:08;;;;;;;24.60;15.20;;;5.40;99.90;;;;;;5054327;28;20580;-70
2021/03/01 01:59:35;;;;;;;29.73;14.90;;;5.50;99.90;;;;;;5055861;28;20451;-71
2021/03/01 02:02:03;;;;;;;5.23;2.27;;;5.40;99.90;;;;;;5062733;28;20509;-70
2021/03/01 02:04:33;;;;;;;50.27;18.80;;;5.30;99.90;;;;;;5058503;28;20497;-70
2021/03/01 02:07:06;;;;;;;6.37;4.63;;;5.20;99.90;;;;;;5051432;28;20461;-71
2021/03/01 02:09:44;;;;;;;12.60;7.50;;;5.20;99.90;;;;;;5060492;28;20448;-70
2021/03/01 02:12:18;;;;;;;37.17;16.63;;;5.10;99.90;;;;;;5056717;28;20581;-70
2021/03/01 02:15:02;;;;;;;52.93;17.83;;;5.00;99.90;;;;;;5060855;28;20479;-71
2021/03/01 02:17:28;;;;;;;30.23;16.23;;;5.00;99.90;;;;;;5061097;28;20465;-70
2021/03/01 02:19:55;;;;;;;14.43;5.33;;;5.00;99.90;;;;;;5058916;28;20530;-70
2021/03/01 02:22:22;;;;;;;24.57;11.87;;;5.10;99.90;;;;;;5059438;28;20539;-70
2021/03/01 02:24:52;;;;;;;38.30;15.30;;;5.00;99.90;;;;;;5056138;28;20462;-71
2021/03/01 02:27:23;;;;;;;20.67;10.27;;;5.00;99.90;;;;;;5057165;28;20540;-70
2021/03/01 02:29:55;;;;;;;53.77;20.50;;;5.10;99.90;;;;;;5060830;28;20459;-70
2021/03/01 02:32:23;;;;;;;22.20;11.60;;;5.20;99.90;;;;;;5061473;28;20449;-70
2021/03/01 02:34:50;;;;;;;13.23;6.27;;;5.30;99.90;;;;;;5060926;28;20524;-70
2021/03/01 02:37:19;;;;;;;39.17;16.93;;;5.20;99.90;;;;;;5053679;28;20540;-70
2021/03/01 02:39:48;;;;;;;17.77;10.00;;;5.00;99.90;;;;;;5057225;28;20997;-70
2021/03/01 02:42:20;;;;;;;31.33;15.67;;;4.90;99.90;;;;;;5055979;28;20467;-70
2021/03/01 02:44:48;;;;;;;5.80;5.30;;;4.80;99.90;;;;;;5058382;28;20425;-70
2021/03/01 02:47:14;;;;;;;13.77;5.27;;;4.80;99.90;;;;;;5052512;28;20466;-68
2021/03/01 02:49:43;;;;;;;12.33;9.87;;;4.80;99.90;;;;;;5052689;28;20525;-69
2021/03/01 02:52:11;;;;;;;5.90;4.87;;;4.80;99.90;;;;;;5056979;28;20964;-68
2021/03/01 02:54:40;;;;;;;9.17;5.30;;;4.80;99.90;;;;;;5056745;28;20506;-69
2021/03/01 02:57:08;;;;;;;10.90;5.57;;;4.80;99.90;;;;;;5058191;28;20605;-68
2021/03/01 02:59:36;;;;;;;8.53;7.47;;;4.90;99.90;;;;;;5059351;28;20468;-69
2021/03/01 03:02:03;;;;;;;15.60;8.20;;;5.00;99.90;;;;;;5058975;28;20824;-70
2021/03/01 03:04:31;;;;;;;12.10;8.33;;;4.90;99.90;;;;;;5054507;28;20528;-69
2021/03/01 03:06:58;;;;;;;19.07;7.60;;;4.90;99.90;;;;;;5052745;28;20512;-68
2021/03/01 03:09:26;;;;;;;10.57;4.70;;;4.90;99.90;;;;;;5057992;28;20494;-68
2021/03/01 03:11:55;;;;;;;11.63;6.13;;;4.80;99.90;;;;;;5053348;28;20446;-69
2021/03/01 03:14:25;;;;;;;8.40;5.80;;;4.70;99.90;;;;;;5057277;28;20534;-68
2021/03/01 03:16:54;;;;;;;10.80;5.20;;;4.70;99.90;;;;;;5055365;28;20541;-69
2021/03/01 03:19:21;;;;;;;9.47;5.27;;;4.80;99.90;;;;;;5062523;28;20994;-68
2021/03/01 03:21:48;;;;;;;14.83;7.87;;;4.70;99.90;;;;;;5056517;28;20472;-69
2021/03/01 03:24:15;;;;;;;18.03;9.60;;;4.80;99.90;;;;;;5058446;28;20457;-68
2021/03/01 03:26:42;;;;;;;7.83;7.00;;;4.80;99.90;;;;;;5052902;28;20445;-68
2021/03/01 03:29:08;;;;;;;25.20;14.13;;;4.70;99.90;;;;;;5060066;28;20565;-68
2021/03/01 03:31:36;;;;;;;18.07;10.20;;;4.70;99.90;;;;;;5040452;28;21241;-68
2021/03/01 03:34:03;;;;;;;8.57;6.67;;;4.60;99.90;;;;;;5056568;28;20422;-68
2021/03/01 03:36:33;;;;;;;28.73;8.70;;;4.60;99.90;;;;;;5053292;28;20430;-68
2021/03/01 03:39:04;;;;;;;10.90;7.70;;;4.60;99.90;;;;;;5058634;28;20506;-68
2021/03/01 03:41:32;;;;;;;8.00;5.43;;;4.60;99.90;;;;;;5053157;28;20443;-68
2021/03/01 03:44:00;;;;;;;15.00;12.70;;;4.60;99.90;;;;;;5056655;28;20538;-68
2021/03/01 03:46:28;;;;;;;36.63;11.57;;;4.50;99.90;;;;;;5052736;28;20839;-69
2021/03/01 03:48:57;;;;;;;8.47;6.90;;;4.50;99.90;;;;;;5057140;28;20540;-70
2021/03/01 03:51:27;;;;;;;8.30;6.17;;;4.60;99.90;;;;;;5057236;28;20569;-70
2021/03/01 03:53:57;;;;;;;19.23;10.83;;;4.60;99.90;;;;;;5054650;28;20534;-69
2021/03/01 03:56:28;;;;;;;29.83;12.83;;;4.60;99.90;;;;;;5048961;28;20957;-71
2021/03/01 03:58:59;;;;;;;25.10;10.77;;;4.80;99.90;;;;;;5054674;28;20436;-71
2021/03/01 04:01:28;;;;;;;26.20;9.67;;;4.90;99.90;;;;;;5052343;28;21064;-70
2021/03/01 04:04:00;;;;;;;15.13;8.53;;;4.80;99.90;;;;;;5059356;28;20474;-69
2021/03/01 04:06:27;;;;;;;24.07;11.33;;;4.70;99.90;;;;;;5051002;28;20445;-69
2021/03/01 04:08:55;;;;;;;10.07;4.27;;;4.60;99.90;;;;;;5058151;28;22313;-70
2021/03/01 04:11:24;;;;;;;5.80;5.30;;;4.70;99.90;;;;;;5052904;28;20573;-70
2021/03/01 04:13:54;;;;;;;13.43;9.23;;;4.50;99.90;;;;;;5057951;28;20523;-70
2021/03/01 04:16:22;;;;;;;5.47;4.93;;;4.40;99.90;;;;;;5051650;28;20934;-69
2021/03/01 04:18:54;;;;;;;24.63;11.57;;;4.30;99.90;;;;;;5056518;28;20917;-69
2021/03/01 04:21:23;;;;;;;7.23;6.17;;;4.40;99.90;;;;;;5053167;28;20422;-69
2021/03/01 04:23:51;;;;;;;1.53;1.30;;;4.30;99.90;;;;;;5055162;28;20494;-68
2021/03/01 04:26:18;;;;;;;7.13;5.77;;;4.30;99.90;;;;;;5056259;28;20508;-69
2021/03/01 04:28:45;;;;;;;28.30;16.17;;;4.30;99.90;;;;;;5051136;28;20538;-70
2021/03/01 04:31:13;;;;;;;16.53;10.30;;;4.40;99.90;;;;;;5056818;28;20460;-69
2021/03/01 04:33:42;;;;;;;12.40;9.60;;;4.40;99.90;;;;;;5058221;28;20450;-69
2021/03/01 04:36:10;;;;;;;40.37;10.40;;;4.40;99.90;;;;;;5054305;28;20467;-68
2021/03/01 04:38:37;;;;;;;35.13;10.67;;;4.50;99.90;;;;;;5056185;28;20916;-68
2021/03/01 04:41:05;;;;;;;37.40;14.67;;;4.50;99.90;;;;;;5052695;28;20439;-70
2021/03/01 04:43:35;;;;;;;21.03;10.17;;;4.60;99.90;;;;;;5055927;28;20516;-70
2021/03/01 04:46:02;;;;;;;27.80;15.27;;;4.70;99.90;;;;;;5048894;28;20509;-70
2021/03/01 04:48:31;;;;;;;32.57;13.90;;;4.70;99.90;;;;;;5051883;28;20540;-70
2021/03/01 04:50:59;;;;;;;12.53;11.27;;;4.70;99.90;;;;;;5057815;28;20458;-69
2021/03/01 04:53:27;;;;;;;46.20;21.07;;;4.80;99.90;;;;;;5059981;28;20662;-70
2021/03/01 04:55:56;;;;;;;33.87;13.77;;;4.60;99.90;;;;;;5056915;28;20449;-71
2021/03/01 04:58:23;;;;;;;17.13;6.93;;;4.70;99.90;;;;;;5057972;28;20477;-70
2021/03/01 05:00:51;;;;;;;30.97;15.40;;;4.80;99.90;;;;;;5062687;28;20455;-69
2021/03/01 05:03:17;;;;;;;41.43;16.77;;;4.60;99.90;;;;;;5055045;28;20509;-70
2021/03/01 05:05:44;;;;;;;15.53;5.00;;;4.60;99.90;;;;;;5055285;28;21144;-70
2021/03/01 05:08:14;;;;;;;12.43;8.37;;;4.60;99.90;;;;;;5054242;28;21795;-70
2021/03/01 05:10:41;;;;;;;10.83;6.47;;;4.50;99.90;;;;;;5057100;28;20456;-69
2021/03/01 05:13:09;;;;;;;22.47;10.07;;;4.50;99.90;;;;;;5046900;28;20487;-71
2021/03/01 05:15:36;;;;;;;7.43;5.57;;;4.50;99.90;;;;;;5048308;28;20437;-69
2021/03/01 05:18:03;;;;;;;31.10;12.57;;;4.40;99.90;;;;;;5053857;28;20554;-69
2021/03/01 05:20:29;;;;;;;24.70;13.03;;;4.30;99.90;;;;;;5056143;28;21193;-69
2021/03/01 05:22:56;;;;;;;19.07;8.13;;;4.30;99.90;;;;;;5062343;28;20559;-68
2021/03/01 05:25:23;;;;;;;25.07;10.30;;;4.40;99.90;;;;;;5063530;28;20839;-69
2021/03/01 05:27:49;;;;;;;12.23;6.73;;;4.40;99.90;;;;;;5062960;28;20569;-70
2021/03/01 05:30:17;;;;;;;22.63;13.30;;;4.50;99.90;;;;;;5064498;28;20564;-68
2021/03/01 05:32:44;;;;;;;9.37;4.77;;;4.40;99.90;;;;;;5064542;28;20458;-68
2021/03/01 05:35:11;;;;;;;15.20;10.90;;;4.40;99.90;;;;;;5062418;28;20478;-68
2021/03/01 05:37:38;;;;;;;5.00;1.90;;;4.20;99.90;;;;;;5062991;28;20489;-69
2021/03/01 05:40:06;;;;;;;4.93;4.37;;;4.20;99.90;;;;;;5062037;28;20433;-68
2021/03/01 05:42:36;;;;;;;11.47;9.37;;;4.20;99.90;;;;;;5061790;28;20433;-68
2021/03/01 05:45:04;;;;;;;5.57;3.77;;;4.20;99.90;;;;;;5061095;28;20891;-68
2021/03/01 05:47:32;;;;;;;30.60;12.80;;;4.20;99.90;;;;;;5062579;28;20667;-67
2021/03/01 05:49:59;;;;;;;12.03;6.70;;;4.10;99.90;;;;;;5061074;28;20537;-68
2021/03/01 05:52:28;;;;;;;16.00;9.37;;;4.10;99.90;;;;;;5061601;28;20450;-69
2021/03/01 05:54:55;;;;;;;15.63;8.40;;;4.10;99.90;;;;;;5059700;28;20440;-68
2021/03/01 05:57:23;;;;;;;21.47;8.10;;;4.10;99.90;;;;;;5058481;28;20482;-68
2021/03/01 05:59:51;;;;;;;10.73;7.50;;;4.00;99.90;;;;;;5061941;28;20532;-68
2021/03/01 06:02:18;;;;;;;22.50;8.60;;;4.10;99.90;;;;;;5059288;28;20575;-69
2021/03/01 06:04:45;;;;;;;37.80;7.40;;;4.20;99.90;;;;;;5061398;28;20556;-69
2021/03/01 06:07:12;;;;;;;9.33;5.27;;;4.00;99.90;;;;;;5062488;28;20485;-68
2021/03/01 06:09:40;;;;;;;3.27;3.07;;;4.10;99.90;;;;;;5059133;28;20894;-69
2021/03/01 06:12:07;;;;;;;10.87;6.80;;;4.10;99.90;;;;;;5062791;28;20838;-69
2021/03/01 06:14:34;;;;;;;9.70;6.10;;;4.10;99.90;;;;;;5062500;28;20537;-70
2021/03/01 06:17:15;;;;;;;38.90;12.63;;;4.20;99.90;;;;;;5061523;28;20806;-70
2021/03/01 06:19:53;;;;;;;15.30;7.37;;;4.20;99.90;;;;;;5064022;28;20486;-69
2021/03/01 06:22:22;;;;;;;34.97;17.17;;;4.20;99.90;;;;;;5063372;28;20937;-70
2021/03/01 06:25:18;;;;;;;16.40;7.57;;;4.20;99.90;;;;;;5060689;28;20973;-69
2021/03/01 06:27:46;;;;;;;27.20;10.97;;;4.30;99.90;;;;;;5019381;28;20520;-71
2021/03/01 06:30:14;;;;;;;5.57;5.17;;;4.20;99.90;;;;;;5053608;28;20457;-69
2021/03/01 06:32:41;;;;;;;17.37;7.17;;;4.40;99.90;;;;;;5060835;28;20992;-69
2021/03/01 06:35:29;;;;;;;27.73;13.50;;;4.40;99.90;;;;;;5060693;28;20462;-69
2021/03/01 06:38:21;;;;;;;35.73;10.50;;;4.50;99.90;;;;;;5059896;28;20499;-69
2021/03/01 06:41:15;;;;;;;50.17;20.93;;;4.50;99.90;;;;;;5060926;28;21005;-70
2021/03/01 06:43:53;;;;;;;37.43;8.40;;;4.40;99.90;;;;;;5061897;28;20462;-70
2021/03/01 06:46:21;;;;;;;26.20;14.30;;;4.40;99.90;;;;;;5061522;28;20436;-69
2021/03/01 06:48:48;;;;;;;29.40;9.00;;;4.30;99.90;;;;;;5060477;28;20545;-70
2021/03/01 06:51:15;;;;;;;51.67;19.07;;;4.30;99.90;;;;;;5061372;28;20521;-69
2021/03/01 06:53:42;;;;;;;37.73;20.87;;;4.40;99.90;;;;;;5062025;28;20437;-69
2021/03/01 06:56:11;;;;;;;21.50;11.33;;;4.60;99.90;;;;;;5056397;28;20495;-69
2021/03/01 06:58:39;;;;;;;34.67;12.97;;;4.70;99.90;;;;;;5060613;28;20540;-69
2021/03/01 07:01:08;;;;;;;22.00;9.83;;;4.60;99.90;;;;;;5059660;28;20508;-69
2021/03/01 07:03:35;;;;;;;18.90;9.43;;;4.70;99.90;;;;;;5060023;28;20469;-69
2021/03/01 07:06:03;;;;;;;12.80;7.80;;;4.70;99.90;;;;;;5056972;28;20550;-69
2021/03/01 07:08:44;;;;;;;24.97;9.60;;;4.50;99.90;;;;;;5055652;28;20507;-69
2021/03/01 07:11:28;;;;;;;16.83;5.60;;;4.30;99.90;;;;;;5061239;28;20436;-69
2021/03/01 07:13:57;;;;;;;20.37;7.53;;;4.20;99.90;;;;;;5058836;28;20461;-68
2021/03/01 07:16:24;;;;;;;32.47;13.47;;;4.10;99.90;;;;;;5059485;28;20560;-69
2021/03/01 07:18:51;;;;;;;15.33;5.30;;;4.00;99.90;;;;;;5055609;28;20502;-68
2021/03/01 07:21:19;;;;;;;12.87;7.07;;;4.00;99.90;;;;;;5060245;28;20497;-68
2021/03/01 07:23:48;;;;;;;8.73;4.27;;;4.10;99.90;;;;;;5061001;28;20443;-68
2021/03/01 07:26:16;;;;;;;8.67;6.93;;;4.10;99.90;;;;;;5056609;28;20459;-68
2021/03/01 07:28:44;;;;;;;9.17;6.53;;;4.10;99.90;;;;;;5062438;28;20485;-70
2021/03/01 07:31:13;;;;;;;7.70;4.30;;;4.10;99.90;;;;;;5060708;28;20440;-70
2021/03/01 07:33:42;;;;;;;36.53;16.47;;;4.20;99.90;;;;;;5057794;28;20465;-69
2021/03/01 07:36:09;;;;;;;4.63;3.97;;;4.20;99.90;;;;;;5057205;28;20440;-69
2021/03/01 07:38:36;;;;;;;8.20;6.50;;;4.30;99.90;;;;;;5060880;28;20554;-69
2021/03/01 07:41:04;;;;;;;6.53;5.10;;;4.30;99.90;;;;;;5059393;28;20607;-71
2021/03/01 07:43:34;;;;;;;16.20;7.47;;;4.20;99.90;;;;;;5057567;28;20456;-69
2021/03/01 07:46:02;;;;;;;15.20;3.90;;;4.20;99.90;;;;;;5063839;28;20457;-70
2021/03/01 07:48:36;;;;;;;5.50;4.50;;;4.30;99.90;;;;;;5057951;28;20559;-69
2021/03/01 07:51:03;;;;;;;2.40;2.30;;;4.30;99.90;;;;;;5060557;28;20548;-69
2021/03/01 07:53:59;;;;;;;20.33;8.23;;;4.20;99.90;;;;;;5061251;28;20559;-69
2021/03/01 07:56:49;;;;;;;4.53;4.23;;;4.30;99.90;;;;;;5056355;28;20430;-69
2021/03/01 07:59:33;;;;;;;11.57;7.53;;;4.40;99.90;;;;;;5058680;28;20436;-69
2021/03/01 08:02:15;;;;;;;33.03;8.57;;;4.30;99.90;;;;;;5063472;28;20580;-69
2021/03/01 08:04:41;;;;;;;11.00;5.33;;;4.40;99.90;;;;;;5057350;28;20425;-69
2021/03/01 08:07:08;;;;;;;4.07;3.40;;;4.40;99.90;;;;;;5054375;28;20572;-69
2021/03/01 08:09:52;;;;;;;20.93;5.73;;;4.30;99.90;;;;;;5059331;28;20554;-69
2021/03/01 08:13:01;;;;;;;12.60;6.60;;;4.20;99.90;;;;;;5062276;28;20457;-69
2021/03/01 08:15:40;;;;;;;18.57;8.83;;;4.30;99.90;;;;;;5048594;28;20438;-69
2021/03/01 08:18:08;;;;;;;15.50;7.30;;;4.40;99.90;;;;;;5057152;28;20453;-69
2021/03/01 08:20:42;;;;;;;5.80;5.30;;;4.40;99.90;;;;;;5059085;28;20537;-68
2021/03/01 08:23:19;;;;;;;15.57;10.10;;;4.40;99.90;;;;;;5062203;28;20537;-69
2021/03/01 08:25:53;;;;;;;33.87;14.77;;;4.30;99.90;;;;;;5056879;28;20490;-69
2021/03/01 08:28:44;;;;;;;36.63;16.73;;;4.50;99.90;;;;;;5057152;28;20961;-69
2021/03/01 08:31:28;;;;;;;21.43;14.10;;;4.60;99.90;;;;;;5059929;28;20426;-69
2021/03/01 08:34:28;;;;;;;44.97;19.30;;;4.80;99.90;;;;;;5059039;28;20429;-68
2021/03/01 08:36:55;;;;;;;11.67;10.47;;;4.80;99.90;;;;;;5056959;28;20900;-69
2021/03/01 08:39:59;;;;;;;31.73;12.73;;;4.80;99.90;;;;;;5056282;28;20489;-70
2021/03/01 08:42:46;;;;;;;30.63;10.57;;;4.60;99.90;;;;;;5057951;28;20439;-68
2021/03/01 08:45:19;;;;;;;6.03;5.50;;;4.60;99.90;;;;;;5054928;28;20470;-69
2021/03/01 08:47:49;;;;;;;10.57;6.67;;;4.40;99.90;;;;;;5055866;28;20584;-70
2021/03/01 08:50:20;;;;;;;11.30;8.67;;;4.40;99.90;;;;;;5059394;28;20478;-69
2021/03/01 08:52:48;;;;;;;10.43;5.97;;;4.40;99.90;;;;;;5068312;28;20538;-70
2021/03/01 08:55:16;;;;;;;16.60;7.00;;;4.40;99.90;;;;;;5056493;28;20788;-68
2021/03/01 08:57:59;;;;;;;11.13;8.50;;;4.60;99.90;;;;;;5051927;28;20640;-70
2021/03/01 09:00:27;;;;;;;13.73;4.43;;;4.60;99.90;;;;;;5056542;28;20601;-74
2021/03/01 09:03:14;;;;;;;3.13;2.70;;;4.50;99.90;;;;;;5062776;28;20823;-69
2021/03/01 09:05:41;;;;;;;6.90;4.33;;;4.50;99.90;;;;;;5058769;28;20918;-69
2021/03/01 09:08:09;;;;;;;23.40;11.23;;;4.50;99.90;;;;;;5059580;28;20538;-68
2021/03/01 09:10:37;;;;;;;12.70;10.37;;;4.50;99.90;;;;;;5059028;28;20465;-68
2021/03/01 09:13:04;;;;;;;23.43;9.27;;;4.50;99.90;;;;;;5061799;28;20532;-68
2021/03/01 09:15:31;;;;;;;9.50;7.10;;;4.60;99.90;;;;;;5054842;28;20466;-69
2021/03/01 09:17:58;;;;;;;9.93;5.40;;;4.60;99.90;;;;;;5057702;28;20478;-70
2021/03/01 09:20:26;;;;;;;12.00;5.77;;;4.60;99.90;;;;;;5055631;28;20517;-69
2021/03/01 09:22:52;;;;;;;11.93;8.90;;;4.60;99.90;;;;;;5058332;28;20464;-69
2021/03/01 09:25:33;;;;;;;15.63;11.17;;;4.60;99.90;;;;;;5057580;28;20505;-69
2021/03/01 09:27:59;;;;;;;14.20;9.50;;;4.70;99.90;;;;;;5055165;28;20474;-69
2021/03/01 09:30:27;;;;;;;34.90;14.93;;;4.70;99.90;;;;;;5060865;28;20489;-69
2021/03/01 09:33:02;;;;;;;48.30;19.60;;;4.70;99.90;;;;;;5061537;28;20484;-68
2021/03/01 09:35:32;;;;;;;19.33;15.60;;;4.90;99.90;;;;;;5063068;28;20535;-68
2021/03/01 09:37:59;;;;;;;4.73;3.37;;;4.80;99.90;;;;;;5061643;28;21049;-69
2021/03/01 09:40:26;;;;;;;12.50;10.13;;;4.70;99.90;;;;;;5062675;28;20432;-70
2021/03/01 09:42:55;;;;;;;5.27;4.77;;;4.50;99.90;;;;;;5064624;28;20489;-69
2021/03/01 09:45:23;;;;;;;14.23;10.33;;;4.50;99.90;;;;;;5064322;28;20503;-69
2021/03/01 09:47:51;;;;;;;2.97;2.77;;;4.50;99.90;;;;;;5058408;28;20979;-69
2021/03/01 09:50:18;;;;;;;6.17;4.30;;;4.50;99.90;;;;;;5062620;28;20494;-69
2021/03/01 09:52:47;;;;;;;8.03;4.77;;;4.40;99.90;;;;;;5064882;28;20574;-69
2021/03/01 09:55:14;;;;;;;6.40;4.00;;;4.40;99.90;;;;;;5064213;28;20455;-69
2021/03/01 09:57:41;;;;;;;3.67;2.30;;;4.50;99.90;;;;;;5061273;28;20456;-69
2021/03/01 10:00:21;;;;;;;18.73;10.70;;;4.60;99.90;;;;;;5060421;28;20546;-69
2021/03/01 10:02:55;;;;;;;24.60;11.80;;;4.80;99.90;;;;;;5062423;28;20474;-69
2021/03/01 10:05:22;;;;;;;14.20;5.90;;;4.90;99.90;;;;;;5064876;28;20565;-68
2021/03/01 10:07:55;;;;;;;31.43;6.90;;;4.90;99.90;;;;;;5062979;28;20573;-69
2021/03/01 10:10:23;;;;;;;15.63;6.80;;;4.90;99.90;;;;;;5061846;28;20941;-70
2021/03/01 10:12:51;;;;;;;19.40;8.43;;;5.00;99.90;;;;;;5064156;28;20546;-70
2021/03/01 10:15:18;;;;;;;25.73;10.60;;;5.00;99.90;;;;;;5066553;28;20459;-69
2021/03/01 10:17:45;;;;;;;9.87;3.53;;;5.00;99.90;;;;;;5062934;28;20514;-69
2021/03/01 10:20:13;;;;;;;2.40;2.20;;;5.10;99.90;;;;;;5061473;28;20909;-69
2021/03/01 10:23:01;;;;;;;15.43;9.47;;;5.10;99.90;;;;;;5058516;28;20436;-69
2021/03/01 10:25:33;;;;;;;9.03;5.03;;;5.00;99.90;;;;;;5059398;28;20486;-69
2021/03/01 10:28:00;;;;;;;14.37;8.13;;;5.00;99.90;;;;;;5055416;28;20441;-70
2021/03/01 10:30:27;;;;;;;24.40;11.80;;;5.10;99.90;;;;;;5059485;28;20586;-69
2021/03/01 10:33:07;;;;;;;6.20;3.67;;;5.10;99.90;;;;;;5061258;28;20998;-70
2021/03/01 10:35:34;;;;;;;15.80;8.30;;;5.10;99.90;;;;;;5058767;28;20458;-70
2021/03/01 10:38:04;;;;;;;5.67;5.20;;;5.20;99.90;;;;;;5055619;28;20520;-69
2021/03/01 10:40:31;;;;;;;13.43;6.50;;;5.30;99.90;;;;;;5059381;28;20490;-69
2021/03/01 10:42:57;;;;;;;13.93;5.70;;;5.20;99.90;;;;;;5057969;28;20966;-70
2021/03/01 10:45:24;;;;;;;9.40;7.60;;;5.20;99.90;;;;;;5057963;28;21025;-70
2021/03/01 10:48:01;;;;;;;10.30;3.10;;;5.20;99.90;;;;;;5060337;28;20506;-69
2021/03/01 10:50:28;;;;;;;24.20;9.43;;;5.20;99.90;;;;;;5058930;28;20440;-69
2021/03/01 10:52:54;;;;;;;28.73;12.60;;;5.40;99.90;;;;;;5060130;28;20510;-70
2021/03/01 10:55:22;;;;;;;26.80;12.20;;;5.70;99.90;;;;;;5054921;28;20931;-70
2021/03/01 10:57:48;;;;;;;22.83;14.20;;;5.60;99.90;;;;;;5057452;28;20481;-69
2021/03/01 11:00:16;;;;;;;17.73;11.10;;;5.60;99.90;;;;;;5062210;28;21067;-69
2021/03/01 11:02:42;;;;;;;5.90;3.50;;;5.60;99.90;;;;;;5059544;28;20951;-69
2021/03/01 11:05:10;;;;;;;8.00;4.27;;;5.40;99.90;;;;;;5059882;28;20461;-70
2021/03/01 11:07:36;;;;;;;20.70;8.97;;;5.30;99.90;;;;;;5060013;28;20540;-68
2021/03/01 11:10:04;;;;;;;15.23;9.17;;;5.20;99.90;;;;;;5059967;28;20557;-68
2021/03/01 11:12:31;;;;;;;12.67;9.40;;;5.20;99.90;;;;;;5061760;28;20574;-69
2021/03/01 11:14:58;;;;;;;18.00;7.37;;;5.40;99.90;;;;;;5061693;28;20459;-68
2021/03/01 11:17:24;;;;;;;16.00;8.10;;;5.40;99.90;;;;;;5054493;28;21601;-68
2021/03/01 11:19:51;;;;;;;6.23;3.97;;;5.40;99.90;;;;;;5063295;28;20546;-69
2021/03/01 11:22:20;;;;;;;10.77;4.87;;;5.50;99.90;;;;;;5057315;28;20435;-69
2021/03/01 11:24:47;;;;;;;7.60;5.40;;;5.60;99.90;;;;;;5057339;28;20430;-68
2021/03/01 11:27:14;;;;;;;13.00;6.63;;;5.50;99.90;;;;;;5039983;28;20485;-69
2021/03/01 11:29:41;;;;;;;13.47;9.70;;;5.40;99.90;;;;;;5060095;28;20991;-68
2021/03/01 11:32:08;;;;;;;15.60;9.17;;;5.50;99.90;;;;;;5057958;28;20507;-68
2021/03/01 11:34:35;;;;;;;10.17;8.00;;;5.60;99.90;;;;;;5057103;28;20490;-68
2021/03/01 11:37:01;;;;;;;17.70;10.27;;;5.50;99.90;;;;;;5057871;28;20526;-68
2021/03/01 11:39:28;;;;;;;22.33;15.70;;;5.50;99.90;;;;;;5060392;28;20436;-69
2021/03/01 11:41:54;;;;;;;13.17;8.47;;;5.70;99.90;;;;;;5057385;28;20422;-69
2021/03/01 11:44:22;;;;;;;35.77;16.70;;;5.90;99.90;;;;;;5054529;28;20545;-69
2021/03/01 11:46:49;;;;;;;12.47;5.30;;;5.90;99.90;;;;;;5056376;28;20429;-69
2021/03/01 11:49:16;;;;;;;33.07;16.47;;;5.80;99.90;;;;;;5059925;28;20464;-69
2021/03/01 11:51:43;;;;;;;13.47;6.23;;;5.80;99.90;;;;;;5054807;28;20570;-68
2021/03/01 11:54:09;;;;;;;38.73;14.47;;;6.00;99.90;;;;;;5057455;28;20464;-68
2021/03/01 11:56:36;;;;;;;37.63;14.97;;;6.00;99.90;;;;;;5055997;28;21585;-68
2021/03/01 11:59:04;;;;;;;19.40;10.80;;;6.20;99.90;;;;;;5054992;28;20983;-69
2021/03/01 12:01:31;;;;;;;29.00;14.80;;;6.30;99.90;;;;;;5055580;28;20832;-69
2021/03/01 12:03:59;;;;;;;24.17;10.43;;;6.30;99.90;;;;;;5061052;28;20468;-68
2021/03/01 12:06:28;;;;;;;23.50;11.90;;;6.20;99.90;;;;;;5058990;28;20447;-71
2021/03/01 12:08:55;;;;;;;15.63;10.00;;;6.10;99.90;;;;;;5059088;28;20478;-69
2021/03/01 12:11:22;;;;;;;12.00;6.80;;;6.20;99.90;;;;;;5055134;28;20509;-69
2021/03/01 12:13:48;;;;;;;25.00;10.43;;;6.10;99.90;;;;;;5055854;28;20497;-69
2021/03/01 12:16:15;;;;;;;9.30;5.47;;;6.20;99.90;;;;;;5054948;28;20901;-68
2021/03/01 12:18:42;;;;;;;9.87;4.60;;;6.20;99.90;;;;;;5059154;28;20466;-68
2021/03/01 12:21:09;;;;;;;8.20;2.70;;;6.00;99.90;;;;;;5055975;28;20853;-67
2021/03/01 12:23:36;;;;;;;5.33;3.77;;;5.80;99.90;;;;;;5056118;28;20457;-67
2021/03/01 12:26:03;;;;;;;3.10;2.27;;;5.70;99.90;;;;;;5056901;28;20529;-69
2021/03/01 12:28:29;;;;;;;18.57;9.53;;;5.70;99.90;;;;;;5054106;28;20510;-69
2021/03/01 12:30:56;;;;;;;23.20;11.50;;;5.80;99.90;;;;;;5055871;28;20448;-69
2021/03/01 12:33:23;;;;;;;10.83;8.67;;;5.90;99.90;;;;;;5054284;28;20524;-69
2021/03/01 12:35:49;;;;;;;14.03;6.87;;;6.10;99.90;;;;;;5053264;28;20445;-69
2021/03/01 12:38:17;;;;;;;10.33;6.87;;;6.00;99.90;;;;;;5057054;28;20449;-68
2021/03/01 12:40:43;;;;;;;8.97;5.77;;;6.00;99.90;;;;;;5057411;28;20460;-68
2021/03/01 12:43:10;;;;;;;11.43;7.23;;;6.00;99.90;;;;;;5054168;28;20559;-68
2021/03/01 12:45:37;;;;;;;14.57;8.07;;;6.00;99.90;;;;;;5060407;28;20453;-68
2021/03/01 12:48:03;;;;;;;17.97;9.30;;;6.20;99.90;;;;;;5054423;28;20548;-69
2021/03/01 12:50:30;;;;;;;11.10;5.83;;;6.20;99.90;;;;;;5058834;28;20554;-70
2021/03/01 12:52:56;;;;;;;9.97;7.70;;;6.10;99.90;;;;;;5061938;28;20833;-69
2021/03/01 12:55:24;;;;;;;14.33;9.50;;;6.10;99.90;;;;;;5053356;28;21086;-69
2021/03/01 12:57:50;;;;;;;16.30;11.33;;;6.00;99.90;;;;;;5053707;28;20450;-70